Time;durP1;ratioP1;P1;durP2;ratioP2;P2;SDS_P1;SDS_P2;PMS_P1;PMS_P2;Temp;Humidity;BMP_temperature;BMP_pressure;BME280_temperature;BME280_humidity;BME280_pressure;Samples;Min_cycle;Max_cycle;Signal;HPM_P1;HPM_P2
2023/12/27 00:02:04;;;;;;;;;;;21.50;40.10;;;;;;5073408;28;19940;-57
2023/12/27 00:04:31;;;;;;;;;;;21.50;40.10;;;;;;5073115;28;19925;-59
2023/12/27 00:06:58;;;;;;;;;;;21.50;40.10;;;;;;5073436;28;19979;-57
2023/12/27 00:09:25;;;;;;;;;;;21.50;40.20;;;;;;5073372;28;19962;-57
2023/12/27 00:11:52;;;;;;;;;;;21.40;40.10;;;;;;5073374;28;19931;-56
2023/12/27 00:14:19;;;;;;;;;;;21.40;40.10;;;;;;5073376;28;19924;-57
2023/12/27 00:16:46;;;;;;;;;;;21.40;40.10;;;;;;5073208;28;20019;-57
2023/12/27 00:19:13;;;;;;;;;;;21.40;40.10;;;;;;5073174;28;19924;-56
2023/12/27 00:21:40;;;;;;;;;;;21.50;40.20;;;;;;5073560;28;20367;-57
2023/12/27 00:24:07;;;;;;;;;;;21.40;40.10;;;;;;5073260;28;19928;-57
2023/12/27 00:26:34;;;;;;;;;;;21.40;40.10;;;;;;5073198;28;20022;-58
2023/12/27 00:29:01;;;;;;;;;;;21.40;40.10;;;;;;5073480;28;19925;-57
2023/12/27 00:31:28;;;;;;;;;;;21.40;40.10;;;;;;5073478;28;19932;-57
2023/12/27 00:33:55;;;;;;;;;;;21.40;40.10;;;;;;5073261;28;20344;-57
2023/12/27 00:36:29;;;;;;;;;;;21.40;40.10;;;;;;5073297;28;20289;-56
2023/12/27 00:38:57;;;;;;;;;;;21.40;40.10;;;;;;5072971;28;19925;-57
2023/12/27 00:41:24;;;;;;;;;;;21.40;40.10;;;;;;5072867;28;19982;-57
2023/12/27 00:43:50;;;;;;;;;;;21.40;40.10;;;;;;5073208;28;19931;-58
2023/12/27 00:46:17;;;;;;;;;;;21.40;40.10;;;;;;5075920;28;19974;-57
2023/12/27 00:48:44;;;;;;;;;;;21.40;40.10;;;;;;5077207;28;19924;-57
2023/12/27 00:51:21;;;;;;;;;;;21.40;40.10;;;;;;5077108;28;19966;-57
2023/12/27 00:53:49;;;;;;;;;;;21.40;40.00;;;;;;5076751;28;20435;-57
2023/12/27 00:56:16;;;;;;;;;;;21.40;40.00;;;;;;5077296;28;20042;-57
2023/12/27 00:58:43;;;;;;;;;;;21.40;40.00;;;;;;5076813;28;20365;-57
2023/12/27 01:01:11;;;;;;;;;;;21.40;40.10;;;;;;5076652;28;19925;-57
2023/12/27 01:03:38;;;;;;;;;;;21.40;40.10;;;;;;5077028;28;19966;-56
2023/12/27 01:06:06;;;;;;;;;;;21.40;40.10;;;;;;5076814;28;19933;-57
2023/12/27 01:08:33;;;;;;;;;;;21.40;40.10;;;;;;5076780;28;19968;-57
2023/12/27 01:11:00;;;;;;;;;;;21.30;40.10;;;;;;5076584;28;19925;-56
2023/12/27 01:13:28;;;;;;;;;;;21.40;40.10;;;;;;5076794;28;20328;-56
2023/12/27 01:15:55;;;;;;;;;;;21.40;40.10;;;;;;5076209;28;19925;-57
2023/12/27 01:18:22;;;;;;;;;;;21.30;40.10;;;;;;5076143;28;20432;-56
2023/12/27 01:20:49;;;;;;;;;;;21.30;40.10;;;;;;5076394;28;19991;-57
2023/12/27 01:23:16;;;;;;;;;;;21.30;40.10;;;;;;5076523;28;19924;-57
2023/12/27 01:25:43;;;;;;;;;;;21.40;40.10;;;;;;5076626;28;19970;-58
2023/12/27 01:28:10;;;;;;;;;;;21.30;40.60;;;;;;5076210;28;19924;-57
2023/12/27 01:30:37;;;;;;;;;;;21.30;40.10;;;;;;5076427;28;19924;-57
2023/12/27 01:33:04;;;;;;;;;;;21.30;40.10;;;;;;5076185;28;20018;-57
2023/12/27 01:35:31;;;;;;;;;;;21.30;40.10;;;;;;5076083;28;20427;-56
2023/12/27 01:37:58;;;;;;;;;;;21.30;40.10;;;;;;5076090;28;20039;-56
2023/12/27 01:40:25;;;;;;;;;;;21.30;40.10;;;;;;5076323;28;19931;-57
2023/12/27 01:42:52;;;;;;;;;;;21.30;40.10;;;;;;5076174;28;20038;-56
2023/12/27 01:45:19;;;;;;;;;;;21.30;40.00;;;;;;5076096;28;19928;-59
2023/12/27 01:47:47;;;;;;;;;;;21.30;40.00;;;;;;5076192;28;19929;-59
2023/12/27 01:50:14;;;;;;;;;;;21.30;40.10;;;;;;5075858;28;19932;-58
2023/12/27 01:52:41;;;;;;;;;;;21.30;40.00;;;;;;5075748;28;20334;-58
2023/12/27 01:55:09;;;;;;;;;;;21.30;40.00;;;;;;5076106;28;19924;-57
2023/12/27 01:57:39;;;;;;;;;;;21.30;40.00;;;;;;5075262;28;19924;-62
2023/12/27 02:00:08;;;;;;;;;;;21.30;40.00;;;;;;5075859;28;20011;-61
2023/12/27 02:02:38;;;;;;;;;;;21.30;40.00;;;;;;5075474;28;19925;-55
2023/12/27 02:05:05;;;;;;;;;;;21.30;40.00;;;;;;5058135;28;19929;-57
2023/12/27 02:07:33;;;;;;;;;;;21.30;40.00;;;;;;5075585;28;20015;-57
2023/12/27 02:10:00;;;;;;;;;;;21.30;40.00;;;;;;5075251;28;20445;-61
2023/12/27 02:12:30;;;;;;;;;;;21.30;40.00;;;;;;5075446;28;19925;-58
2023/12/27 02:14:57;;;;;;;;;;;21.30;40.00;;;;;;5075559;28;19925;-59
2023/12/27 02:17:25;;;;;;;;;;;21.30;40.00;;;;;;5074763;28;20010;-58
2023/12/27 02:19:53;;;;;;;;;;;21.30;40.00;;;;;;5075456;28;20361;-59
2023/12/27 02:22:20;;;;;;;;;;;21.30;40.00;;;;;;5075447;28;19928;-57
2023/12/27 02:24:48;;;;;;;;;;;21.20;40.00;;;;;;5075128;28;20374;-57
2023/12/27 02:27:15;;;;;;;;;;;21.20;40.00;;;;;;5075176;28;20370;-58
2023/12/27 02:29:43;;;;;;;;;;;21.20;40.00;;;;;;5074963;28;20001;-58
2023/12/27 02:32:10;;;;;;;;;;;21.20;40.00;;;;;;5075381;28;19928;-58
2023/12/27 02:34:36;;;;;;;;;;;21.20;40.00;;;;;;5075238;28;19932;-59
2023/12/27 02:37:04;;;;;;;;;;;21.20;40.00;;;;;;5075154;28;20351;-57
2023/12/27 02:39:31;;;;;;;;;;;21.20;40.00;;;;;;5074737;28;19970;-58
2023/12/27 02:41:58;;;;;;;;;;;21.20;40.00;;;;;;5074794;28;19924;-58
2023/12/27 02:44:28;;;;;;;;;;;21.20;40.00;;;;;;5074870;28;19924;-57
2023/12/27 02:46:55;;;;;;;;;;;21.20;40.00;;;;;;5075246;28;19924;-57
2023/12/27 02:49:22;;;;;;;;;;;21.20;40.00;;;;;;5074597;28;19968;-57
2023/12/27 02:51:49;;;;;;;;;;;21.20;40.00;;;;;;5073779;28;19931;-58
2023/12/27 02:54:15;;;;;;;;;;;21.20;40.00;;;;;;5074665;28;20325;-58
2023/12/27 02:56:42;;;;;;;;;;;21.20;40.00;;;;;;5073618;28;20366;-58
2023/12/27 02:59:09;;;;;;;;;;;21.20;40.00;;;;;;5074270;28;20049;-58
2023/12/27 03:01:36;;;;;;;;;;;21.20;40.00;;;;;;5074919;28;19932;-58
2023/12/27 03:04:03;;;;;;;;;;;21.20;40.00;;;;;;5073105;28;19972;-58
2023/12/27 03:06:30;;;;;;;;;;;21.20;39.90;;;;;;5056095;28;19974;-58
2023/12/27 03:08:57;;;;;;;;;;;21.20;39.90;;;;;;5069714;28;19979;-58
2023/12/27 03:11:24;;;;;;;;;;;21.20;39.90;;;;;;5073650;28;19969;-57
2023/12/27 03:13:51;;;;;;;;;;;21.20;39.90;;;;;;5074332;28;19963;-58
2023/12/27 03:16:19;;;;;;;;;;;21.20;39.90;;;;;;5074369;28;19975;-58
2023/12/27 03:18:46;;;;;;;;;;;21.20;39.90;;;;;;5073691;28;19925;-58
2023/12/27 03:21:13;;;;;;;;;;;21.20;39.90;;;;;;5073818;28;19935;-58
2023/12/27 03:23:40;;;;;;;;;;;21.20;39.90;;;;;;5073833;28;19936;-58
2023/12/27 03:26:07;;;;;;;;;;;21.20;40.50;;;;;;5073915;28;19929;-58
2023/12/27 03:28:33;;;;;;;;;;;21.20;39.90;;;;;;5056448;28;20014;-58
2023/12/27 03:31:00;;;;;;;;;;;21.10;39.90;;;;;;5074193;28;19932;-58
2023/12/27 03:33:28;;;;;;;;;;;21.10;39.90;;;;;;5073849;28;19935;-58
2023/12/27 03:35:55;;;;;;;;;;;21.10;39.90;;;;;;5074074;28;19925;-58
2023/12/27 03:38:22;;;;;;;;;;;21.10;39.90;;;;;;5073559;28;19925;-58
2023/12/27 03:40:49;;;;;;;;;;;21.10;39.90;;;;;;5073682;28;20381;-58
2023/12/27 03:43:16;;;;;;;;;;;21.10;39.90;;;;;;5073875;28;20297;-58
2023/12/27 03:45:45;;;;;;;;;;;21.10;39.90;;;;;;5073638;28;19979;-58
2023/12/27 03:48:12;;;;;;;;;;;21.10;39.90;;;;;;5073834;28;19939;-57
2023/12/27 03:50:40;;;;;;;;;;;21.10;39.90;;;;;;5073069;28;19956;-59
2023/12/27 03:53:07;;;;;;;;;;;21.10;39.90;;;;;;5072407;28;20363;-58
2023/12/27 03:55:34;;;;;;;;;;;21.10;39.90;;;;;;5073721;28;20292;-58
2023/12/27 03:58:01;;;;;;;;;;;21.10;39.90;;;;;;5073586;28;19925;-58
2023/12/27 04:00:28;;;;;;;;;;;21.10;39.80;;;;;;5072616;28;20007;-57
2023/12/27 04:02:55;;;;;;;;;;;21.10;39.90;;;;;;5073593;28;19925;-58
2023/12/27 04:05:22;;;;;;;;;;;21.10;39.80;;;;;;5073347;28;19924;-58
2023/12/27 04:07:49;;;;;;;;;;;21.10;40.40;;;;;;5073286;28;19932;-58
2023/12/27 04:10:16;;;;;;;;;;;21.10;39.80;;;;;;5073482;28;19971;-58
2023/12/27 04:12:43;;;;;;;;;;;21.10;39.80;;;;;;5073521;28;19936;-58
2023/12/27 04:15:10;;;;;;;;;;;21.10;39.80;;;;;;5073174;28;20389;-60
2023/12/27 04:17:38;;;;;;;;;;;21.10;39.80;;;;;;5072609;28;19972;-58
2023/12/27 04:20:06;;;;;;;;;;;21.10;39.80;;;;;;5072403;28;20008;-58
2023/12/27 04:22:33;;;;;;;;;;;21.10;39.80;;;;;;5073250;28;19925;-58
2023/12/27 04:24:59;;;;;;;;;;;21.10;39.80;;;;;;5073539;28;19973;-57
2023/12/27 04:27:26;;;;;;;;;;;21.10;39.80;;;;;;5073490;28;19924;-57
2023/12/27 04:29:53;;;;;;;;;;;21.10;39.70;;;;;;5073410;28;20022;-57
2023/12/27 04:32:20;;;;;;;;;;;21.10;39.80;;;;;;5073001;28;19986;-57
2023/12/27 04:34:47;;;;;;;;;;;21.10;39.80;;;;;;5055242;28;19928;-58
2023/12/27 04:37:14;;;;;;;;;;;21.10;39.70;;;;;;5072805;28;20473;-58
2023/12/27 04:39:41;;;;;;;;;;;21.10;39.60;;;;;;5072916;28;20339;-57
2023/12/27 04:42:08;;;;;;;;;;;21.10;39.50;;;;;;5073094;28;19928;-57
2023/12/27 04:44:35;;;;;;;;;;;21.10;39.30;;;;;;5070828;28;20035;-58
2023/12/27 04:47:02;;;;;;;;;;;21.20;39.20;;;;;;5069748;28;19933;-58
2023/12/27 04:49:29;;;;;;;;;;;21.20;39.00;;;;;;5072519;28;20311;-57
2023/12/27 04:51:56;;;;;;;;;;;21.20;38.90;;;;;;5072214;28;19935;-58
2023/12/27 04:54:23;;;;;;;;;;;21.20;38.70;;;;;;5072622;28;19932;-57
2023/12/27 04:56:54;;;;;;;;;;;21.20;38.60;;;;;;5072552;28;19971;-57
2023/12/27 04:59:22;;;;;;;;;;;21.20;38.60;;;;;;5069612;28;19928;-58
2023/12/27 05:01:49;;;;;;;;;;;21.30;38.50;;;;;;5068715;28;19924;-58
2023/12/27 05:04:16;;;;;;;;;;;21.30;38.40;;;;;;5073026;28;19925;-57
2023/12/27 05:06:43;;;;;;;;;;;21.30;38.40;;;;;;5071654;28;19925;-56
2023/12/27 05:09:10;;;;;;;;;;;21.20;38.20;;;;;;5071610;28;19929;-57
2023/12/27 05:11:37;;;;;;;;;;;21.30;38.20;;;;;;5072631;28;19931;-57
2023/12/27 05:14:04;;;;;;;;;;;21.30;38.10;;;;;;5072791;28;20286;-57
2023/12/27 05:16:31;;;;;;;;;;;21.30;38.00;;;;;;5068821;28;19947;-57
2023/12/27 05:18:58;;;;;;;;;;;21.30;37.90;;;;;;5070506;28;20271;-58
2023/12/27 05:21:25;;;;;;;;;;;21.30;37.80;;;;;;5072221;28;20397;-57
2023/12/27 05:23:52;;;;;;;;;;;21.30;37.70;;;;;;5055147;28;20296;-58
2023/12/27 05:26:19;;;;;;;;;;;21.30;37.70;;;;;;5055138;28;20281;-57
2023/12/27 05:28:45;;;;;;;;;;;21.30;37.60;;;;;;5072491;28;20401;-58
2023/12/27 05:31:12;;;;;;;;;;;21.30;37.50;;;;;;5050156;28;19931;-58
2023/12/27 05:33:40;;;;;;;;;;;21.30;37.50;;;;;;5074799;28;20305;-58
2023/12/27 05:36:07;;;;;;;;;;;21.30;37.50;;;;;;5075699;28;19928;-58
2023/12/27 05:38:34;;;;;;;;;;;21.30;37.40;;;;;;5075312;28;19924;-58
2023/12/27 05:41:02;;;;;;;;;;;21.40;37.40;;;;;;5075565;28;19925;-58
2023/12/27 05:43:29;;;;;;;;;;;21.40;37.30;;;;;;5072960;28;19933;-57
2023/12/27 05:45:56;;;;;;;;;;;21.30;37.20;;;;;;5075783;28;19924;-57
2023/12/27 05:48:23;;;;;;;;;;;21.30;37.20;;;;;;5069528;28;20302;-58
2023/12/27 05:50:50;;;;;;;;;;;21.40;37.20;;;;;;5063291;28;19925;-58
2023/12/27 05:53:17;;;;;;;;;;;21.40;37.20;;;;;;5059098;28;19978;-58
2023/12/27 05:55:44;;;;;;;;;;;21.40;37.10;;;;;;5069585;28;20297;-57
2023/12/27 05:58:11;;;;;;;;;;;21.40;37.10;;;;;;5049372;28;19932;-58
2023/12/27 06:00:38;;;;;;;;;;;21.40;37.00;;;;;;5075458;28;20447;-58
2023/12/27 06:03:05;;;;;;;;;;;21.40;37.00;;;;;;5075119;28;19932;-58
2023/12/27 06:05:32;;;;;;;;;;;21.40;36.90;;;;;;5075713;28;19932;-58
2023/12/27 06:07:59;;;;;;;;;;;21.40;36.90;;;;;;5076016;28;19952;-58
2023/12/27 06:10:26;;;;;;;;;;;21.40;36.90;;;;;;5075565;28;19974;-58
2023/12/27 06:12:53;;;;;;;;;;;21.40;36.80;;;;;;5075612;28;19924;-57
2023/12/27 06:15:20;;;;;;;;;;;21.40;36.80;;;;;;5071692;28;19924;-57
2023/12/27 06:17:47;;;;;;;;;;;21.40;36.80;;;;;;5073862;28;20019;-59
2023/12/27 06:20:14;;;;;;;;;;;21.40;36.80;;;;;;5074344;28;19931;-58
2023/12/27 06:22:42;;;;;;;;;;;21.40;36.80;;;;;;5074167;28;19929;-58
2023/12/27 06:25:09;;;;;;;;;;;21.40;36.90;;;;;;5073621;28;19924;-58
2023/12/27 06:27:36;;;;;;;;;;;21.40;36.90;;;;;;5073517;28;20023;-58
2023/12/27 06:30:04;;;;;;;;;;;21.50;37.00;;;;;;5073873;28;20420;-59
2023/12/27 06:32:31;;;;;;;;;;;21.50;37.00;;;;;;5075050;28;19967;-57
2023/12/27 06:34:58;;;;;;;;;;;21.50;37.10;;;;;;5075198;28;19924;-57
2023/12/27 06:37:25;;;;;;;;;;;21.50;37.10;;;;;;5075062;28;20031;-57
2023/12/27 06:39:52;;;;;;;;;;;21.50;37.10;;;;;;5074465;28;19931;-56
2023/12/27 06:42:19;;;;;;;;;;;21.50;37.10;;;;;;5074945;28;19971;-58
2023/12/27 06:44:46;;;;;;;;;;;21.50;37.10;;;;;;5057138;28;20025;-54
2023/12/27 06:47:13;;;;;;;;;;;21.50;37.00;;;;;;5072378;28;19932;-57
2023/12/27 06:49:40;;;;;;;;;;;21.50;37.00;;;;;;5072371;28;19931;-60
2023/12/27 06:52:07;;;;;;;;;;;21.50;37.00;;;;;;5072874;28;19928;-58
2023/12/27 06:54:34;;;;;;;;;;;21.60;37.50;;;;;;5073242;28;19924;-53
2023/12/27 06:57:03;;;;;;;;;;;21.60;37.60;;;;;;5074230;28;19925;-56
2023/12/27 06:59:30;;;;;;;;;;;21.70;37.70;;;;;;5072602;28;20027;-51
2023/12/27 07:01:57;;;;;;;;;;;21.70;37.70;;;;;;5072059;28;19933;-52
2023/12/27 07:04:24;;;;;;;;;;;21.80;37.40;;;;;;5073142;28;19924;-56
2023/12/27 07:06:50;;;;;;;;;;;21.80;37.50;;;;;;5073674;28;19931;-57
2023/12/27 07:09:20;;;;;;;;;;;21.80;37.60;;;;;;5073086;28;19931;-58
2023/12/27 07:11:49;;;;;;;;;;;21.90;37.50;;;;;;5073007;28;19931;-58
2023/12/27 07:14:16;;;;;;;;;;;21.90;37.50;;;;;;5073049;28;19924;-57
2023/12/27 07:16:44;;;;;;;;;;;21.90;37.40;;;;;;5069808;28;20373;-58
2023/12/27 07:19:11;;;;;;;;;;;21.90;37.40;;;;;;5070101;28;19932;-56
2023/12/27 07:21:38;;;;;;;;;;;22.00;37.50;;;;;;5072149;28;20004;-59
2023/12/27 07:24:05;;;;;;;;;;;22.00;37.40;;;;;;5055341;28;19925;-59
2023/12/27 07:26:32;;;;;;;;;;;22.10;37.40;;;;;;5054811;28;19930;-56
2023/12/27 07:28:59;;;;;;;;;;;22.20;37.40;;;;;;5065166;28;19932;-56
2023/12/27 07:31:26;;;;;;;;;;;22.20;37.50;;;;;;5072103;28;19931;-59
2023/12/27 07:33:53;;;;;;;;;;;22.20;37.40;;;;;;5073229;28;19931;-59
2023/12/27 07:36:21;;;;;;;;;;;22.30;37.40;;;;;;5070361;28;19986;-59
2023/12/27 07:38:49;;;;;;;;;;;22.40;37.60;;;;;;5071971;28;20293;-57
2023/12/27 07:41:16;;;;;;;;;;;22.40;37.90;;;;;;5071835;28;19924;-59
2023/12/27 07:43:43;;;;;;;;;;;22.40;37.80;;;;;;5072782;28;19924;-57
2023/12/27 07:46:10;;;;;;;;;;;22.50;37.60;;;;;;5072451;28;19928;-59
2023/12/27 07:48:37;;;;;;;;;;;22.50;37.40;;;;;;5073357;28;19924;-62
2023/12/27 07:51:05;;;;;;;;;;;22.50;37.20;;;;;;5072062;28;19970;-59
2023/12/27 07:53:33;;;;;;;;;;;22.50;36.90;;;;;;5071301;28;20019;-59
2023/12/27 07:56:00;;;;;;;;;;;22.50;36.80;;;;;;5071440;28;19977;-59
2023/12/27 07:58:27;;;;;;;;;;;22.50;36.70;;;;;;5072173;28;20294;-57
2023/12/27 08:00:54;;;;;;;;;;;22.40;36.60;;;;;;5055080;28;19963;-57
2023/12/27 08:03:21;;;;;;;;;;;22.50;36.70;;;;;;5070317;28;20801;-58
2023/12/27 08:05:48;;;;;;;;;;;22.50;36.50;;;;;;5070436;28;19924;-60
2023/12/27 08:08:15;;;;;;;;;;;22.50;36.40;;;;;;5071965;28;20289;-57
2023/12/27 08:10:43;;;;;;;;;;;22.50;36.50;;;;;;5069201;28;19928;-58
2023/12/27 08:13:10;;;;;;;;;;;22.50;36.40;;;;;;5071545;28;19979;-58
2023/12/27 08:15:37;;;;;;;;;;;22.50;36.30;;;;;;5073058;28;19928;-58
2023/12/27 08:18:04;;;;;;;;;;;22.50;36.30;;;;;;5071121;28;20380;-59
2023/12/27 08:20:31;;;;;;;;;;;22.50;36.30;;;;;;5067980;28;19935;-59
2023/12/27 08:22:58;;;;;;;;;;;22.50;36.30;;;;;;5064498;28;20338;-58
2023/12/27 08:25:25;;;;;;;;;;;22.60;36.40;;;;;;5072466;28;20440;-59
2023/12/27 08:27:52;;;;;;;;;;;22.60;36.40;;;;;;5070419;28;19971;-59
2023/12/27 08:30:19;;;;;;;;;;;22.60;36.40;;;;;;5063390;28;19924;-59
2023/12/27 08:32:47;;;;;;;;;;;22.70;36.30;;;;;;5066478;28;19981;-59
2023/12/27 08:35:14;;;;;;;;;;;22.70;36.20;;;;;;5068623;28;19974;-58
2023/12/27 08:37:45;;;;;;;;;;;22.70;36.10;;;;;;5072503;28;19924;-57
2023/12/27 08:40:16;;;;;;;;;;;22.80;36.00;;;;;;5069721;28;19924;-58
2023/12/27 08:42:43;;;;;;;;;;;22.80;35.90;;;;;;5063475;28;19925;-57
2023/12/27 08:45:11;;;;;;;;;;;22.80;35.80;;;;;;5071859;28;19935;-59
2023/12/27 08:47:38;;;;;;;;;;;22.80;35.70;;;;;;5070173;28;19925;-59
2023/12/27 08:50:05;;;;;;;;;;;22.80;35.80;;;;;;5068593;28;20007;-56
2023/12/27 08:52:32;;;;;;;;;;;22.80;35.70;;;;;;5070371;28;20405;-58
2023/12/27 08:55:00;;;;;;;;;;;22.80;35.70;;;;;;5069329;28;20439;-57
2023/12/27 08:57:27;;;;;;;;;;;22.80;35.60;;;;;;5065930;28;20373;-59
2023/12/27 08:59:58;;;;;;;;;;;22.90;35.60;;;;;;5072341;28;20033;-59
2023/12/27 09:02:25;;;;;;;;;;;22.90;35.50;;;;;;5071090;28;19966;-59
2023/12/27 09:04:52;;;;;;;;;;;22.90;35.60;;;;;;5069588;28;20417;-58
2023/12/27 09:07:19;;;;;;;;;;;22.90;35.50;;;;;;5072929;28;19941;-60
2023/12/27 09:09:46;;;;;;;;;;;23.00;35.40;;;;;;5074530;28;19925;-59
2023/12/27 09:12:13;;;;;;;;;;;23.00;35.50;;;;;;5074524;28;19928;-58
2023/12/27 09:14:40;;;;;;;;;;;23.00;35.50;;;;;;5074878;28;19928;-59
2023/12/27 09:17:07;;;;;;;;;;;23.00;35.50;;;;;;5074276;28;19967;-59
2023/12/27 09:19:34;;;;;;;;;;;23.00;35.50;;;;;;5068994;28;20022;-59
2023/12/27 09:22:01;;;;;;;;;;;23.00;35.50;;;;;;5072067;28;19998;-60
2023/12/27 09:24:29;;;;;;;;;;;23.00;35.60;;;;;;5071090;28;19924;-59
2023/12/27 09:26:58;;;;;;;;;;;23.00;35.70;;;;;;5072070;28;20044;-59
2023/12/27 09:29:25;;;;;;;;;;;23.00;35.70;;;;;;5069645;28;20451;-59
2023/12/27 09:31:52;;;;;;;;;;;23.10;35.80;;;;;;5074424;28;19924;-59
2023/12/27 09:34:19;;;;;;;;;;;23.10;35.70;;;;;;5074738;28;19928;-59
2023/12/27 09:36:46;;;;;;;;;;;23.10;35.70;;;;;;5074534;28;19932;-59
2023/12/27 09:39:13;;;;;;;;;;;23.10;35.60;;;;;;5073173;28;19932;-58
2023/12/27 09:41:40;;;;;;;;;;;23.20;35.50;;;;;;5072677;28;20378;-56
2023/12/27 09:44:09;;;;;;;;;;;23.20;35.50;;;;;;5072081;28;19929;-57
2023/12/27 09:46:38;;;;;;;;;;;23.20;35.50;;;;;;5073126;28;20281;-59
2023/12/27 09:49:08;;;;;;;;;;;23.30;35.50;;;;;;5069541;28;20027;-59
2023/12/27 09:51:37;;;;;;;;;;;23.30;35.50;;;;;;5073055;28;20388;-56
2023/12/27 09:54:04;;;;;;;;;;;23.30;35.50;;;;;;5073355;28;19932;-58
2023/12/27 09:56:31;;;;;;;;;;;23.30;35.40;;;;;;5074537;28;19936;-58
2023/12/27 09:58:59;;;;;;;;;;;23.40;35.50;;;;;;5073588;28;19924;-59
2023/12/27 10:01:29;;;;;;;;;;;23.40;35.50;;;;;;5056598;28;20381;-59
2023/12/27 10:04:03;;;;;;;;;;;23.40;35.40;;;;;;5071725;28;19963;-59
2023/12/27 10:06:38;;;;;;;;;;;23.40;35.40;;;;;;5071499;28;19925;-59
2023/12/27 10:09:05;;;;;;;;;;;23.40;35.50;;;;;;5073349;28;20369;-62
2023/12/27 10:11:33;;;;;;;;;;;23.40;35.50;;;;;;5071600;28;19931;-59
2023/12/27 10:14:00;;;;;;;;;;;23.40;35.50;;;;;;5072090;28;20292;-58
2023/12/27 10:16:26;;;;;;;;;;;23.40;35.50;;;;;;5073858;28;19990;-59
2023/12/27 10:18:53;;;;;;;;;;;23.40;35.60;;;;;;5083944;28;19989;-58
2023/12/27 10:21:21;;;;;;;;;;;23.40;35.50;;;;;;5073698;28;19928;-58
2023/12/27 10:23:48;;;;;;;;;;;23.40;35.60;;;;;;5056509;28;19924;-60
2023/12/27 10:26:15;;;;;;;;;;;23.50;35.70;;;;;;5072444;28;20401;-59
2023/12/27 10:28:44;;;;;;;;;;;23.60;35.80;;;;;;5074760;28;19924;-58
2023/12/27 10:31:13;;;;;;;;;;;23.60;35.80;;;;;;5064876;28;20432;-59
2023/12/27 10:33:41;;;;;;;;;;;23.60;35.80;;;;;;5074630;28;19967;-60
2023/12/27 10:36:09;;;;;;;;;;;23.60;35.80;;;;;;5073638;28;19982;-59
2023/12/27 10:38:37;;;;;;;;;;;23.60;35.80;;;;;;5070438;28;20381;-58
2023/12/27 10:41:05;;;;;;;;;;;23.60;35.80;;;;;;5073628;28;19929;-58
2023/12/27 10:43:33;;;;;;;;;;;23.70;35.80;;;;;;5072865;28;19965;-58
2023/12/27 10:46:06;;;;;;;;;;;23.70;35.90;;;;;;5054091;28;20382;-58
2023/12/27 10:48:33;;;;;;;;;;;23.70;35.80;;;;;;5070073;28;19929;-58
2023/12/27 10:51:01;;;;;;;;;;;23.70;35.70;;;;;;5070373;28;20366;-58
2023/12/27 10:53:29;;;;;;;;;;;23.70;35.70;;;;;;5064648;28;19932;-59
2023/12/27 10:55:58;;;;;;;;;;;23.70;35.60;;;;;;5049900;28;19925;-58
2023/12/27 10:58:28;;;;;;;;;;;23.80;35.60;;;;;;5072975;28;19993;-56
2023/12/27 11:00:55;;;;;;;;;;;23.80;35.50;;;;;;5071863;28;19924;-58
2023/12/27 11:03:22;;;;;;;;;;;23.80;35.30;;;;;;5072847;28;20397;-57
2023/12/27 11:05:50;;;;;;;;;;;23.80;35.30;;;;;;5068575;28;19932;-58
2023/12/27 11:08:18;;;;;;;;;;;23.90;35.30;;;;;;5066718;28;19982;-56
2023/12/27 11:10:45;;;;;;;;;;;23.90;35.20;;;;;;5065493;28;19925;-57
2023/12/27 11:13:14;;;;;;;;;;;23.90;35.10;;;;;;5072213;28;19937;-58
2023/12/27 11:15:44;;;;;;;;;;;23.90;35.10;;;;;;5073077;28;19982;-58
2023/12/27 11:18:12;;;;;;;;;;;24.00;35.20;;;;;;5070987;28;20389;-56
2023/12/27 11:20:40;;;;;;;;;;;24.00;35.10;;;;;;5075123;28;20023;-58
2023/12/27 11:23:08;;;;;;;;;;;24.00;35.10;;;;;;5071643;28;19946;-57
2023/12/27 11:25:37;;;;;;;;;;;24.00;35.10;;;;;;5072552;28;21395;-58
2023/12/27 11:28:04;;;;;;;;;;;24.00;35.10;;;;;;5066926;28;20018;-54
2023/12/27 11:30:32;;;;;;;;;;;24.00;35.10;;;;;;5070331;28;19928;-58
2023/12/27 11:32:59;;;;;;;;;;;24.00;35.00;;;;;;5073556;28;19931;-59
2023/12/27 11:35:32;;;;;;;;;;;24.10;35.00;;;;;;5072971;28;19925;-60
2023/12/27 11:38:14;;;;;;;;;;;24.10;35.00;;;;;;5072283;28;20386;-57
2023/12/27 11:40:43;;;;;;;;;;;24.00;34.90;;;;;;5072447;28;19933;-57
2023/12/27 11:43:15;;;;;;;;;;;24.10;34.90;;;;;;5072858;28;19967;-58
2023/12/27 11:46:00;;;;;;;;;;;24.10;34.80;;;;;;5073560;28;20437;-58
2023/12/27 11:48:31;;;;;;;;;;;24.10;34.70;;;;;;5072668;28;19928;-57
2023/12/27 11:50:59;;;;;;;;;;;24.10;34.70;;;;;;5071894;28;19968;-56
2023/12/27 11:53:27;;;;;;;;;;;24.10;34.60;;;;;;5072538;28;19935;-56
2023/12/27 11:55:57;;;;;;;;;;;24.10;34.50;;;;;;5073512;28;19936;-57
2023/12/27 11:58:35;;;;;;;;;;;24.20;34.50;;;;;;5072922;28;20007;-57
2023/12/27 12:01:19;;;;;;;;;;;24.10;34.40;;;;;;5071884;28;19934;-57
2023/12/27 12:03:50;;;;;;;;;;;24.20;34.30;;;;;;5072928;28;19925;-55
2023/12/27 12:06:37;;;;;;;;;;;24.20;34.30;;;;;;5071075;28;19931;-59
2023/12/27 12:09:05;;;;;;;;;;;24.30;34.20;;;;;;5072506;28;19928;-59
2023/12/27 12:11:34;;;;;;;;;;;24.20;34.10;;;;;;5072624;28;19974;-59
2023/12/27 12:14:01;;;;;;;;;;;24.30;34.10;;;;;;5072691;28;19925;-59
2023/12/27 12:16:32;;;;;;;;;;;24.30;34.20;;;;;;5071557;28;20389;-59
2023/12/27 12:18:59;;;;;;;;;;;24.30;34.60;;;;;;5071725;28;20266;-59
2023/12/27 12:21:28;;;;;;;;;;;24.30;35.00;;;;;;5071942;28;19944;-59
2023/12/27 12:23:55;;;;;;;;;;;24.30;35.30;;;;;;5071773;28;20007;-59
2023/12/27 12:26:22;;;;;;;;;;;24.30;35.40;;;;;;5072568;28;20015;-60
2023/12/27 12:28:55;;;;;;;;;;;24.30;35.50;;;;;;5072673;28;19928;-60
2023/12/27 12:31:22;;;;;;;;;;;24.30;35.40;;;;;;5072548;28;19929;-58
2023/12/27 12:33:50;;;;;;;;;;;24.30;35.40;;;;;;5072797;28;19994;-59
2023/12/27 12:36:18;;;;;;;;;;;24.30;35.40;;;;;;5072259;28;20377;-59
2023/12/27 12:38:45;;;;;;;;;;;24.30;35.40;;;;;;5071982;28;19924;-59
2023/12/27 12:41:12;;;;;;;;;;;24.40;35.40;;;;;;5067592;28;19925;-59
2023/12/27 12:43:39;;;;;;;;;;;24.40;35.40;;;;;;5072629;28;19939;-59
2023/12/27 12:46:07;;;;;;;;;;;24.40;35.30;;;;;;5075916;28;19925;-59
2023/12/27 12:48:36;;;;;;;;;;;24.40;35.30;;;;;;5076456;28;19943;-60
2023/12/27 12:51:17;;;;;;;;;;;24.40;35.20;;;;;;5077171;28;19928;-59
2023/12/27 12:53:44;;;;;;;;;;;24.40;35.10;;;;;;5073455;28;19969;-63
2023/12/27 12:56:11;;;;;;;;;;;24.40;35.10;;;;;;5074976;28;20348;-58
2023/12/27 12:58:40;;;;;;;;;;;24.40;35.10;;;;;;5075302;28;20039;-59
2023/12/27 13:01:11;;;;;;;;;;;24.40;35.30;;;;;;5074839;28;19924;-59
2023/12/27 13:03:41;;;;;;;;;;;24.50;35.60;;;;;;5074177;28;19935;-60
2023/12/27 13:06:08;;;;;;;;;;;24.50;35.70;;;;;;5076146;28;19929;-59
2023/12/27 13:08:36;;;;;;;;;;;24.50;35.80;;;;;;5076675;28;19947;-59
2023/12/27 13:11:03;;;;;;;;;;;24.50;36.00;;;;;;5076348;28;19970;-59
2023/12/27 13:13:30;;;;;;;;;;;24.60;36.20;;;;;;5075225;28;20305;-59
2023/12/27 13:15:57;;;;;;;;;;;24.60;36.40;;;;;;5075691;28;19970;-60
2023/12/27 13:18:25;;;;;;;;;;;24.70;36.50;;;;;;5069023;28;19970;-60
2023/12/27 13:20:55;;;;;;;;;;;24.70;36.50;;;;;;5072504;28;19962;-59
2023/12/27 13:23:22;;;;;;;;;;;24.70;36.40;;;;;;5057766;28;19928;-59
2023/12/27 13:25:49;;;;;;;;;;;24.70;36.20;;;;;;5075414;28;19928;-59
2023/12/27 13:28:22;;;;;;;;;;;24.70;36.00;;;;;;5074373;28;20317;-59
2023/12/27 13:30:49;;;;;;;;;;;24.70;35.80;;;;;;5069361;28;19938;-59
2023/12/27 13:33:18;;;;;;;;;;;24.70;35.80;;;;;;5074884;28;19924;-59
2023/12/27 13:35:45;;;;;;;;;;;24.70;35.60;;;;;;5075985;28;19982;-60
2023/12/27 13:38:13;;;;;;;;;;;24.70;35.50;;;;;;5075061;28;19981;-60
2023/12/27 13:40:40;;;;;;;;;;;24.70;35.40;;;;;;5074437;28;19978;-60
2023/12/27 13:43:07;;;;;;;;;;;24.80;35.40;;;;;;5074871;28;19933;-59
2023/12/27 13:45:34;;;;;;;;;;;24.70;35.30;;;;;;5074044;28;19931;-60
2023/12/27 13:48:01;;;;;;;;;;;24.70;35.20;;;;;;5074957;28;19947;-58
2023/12/27 13:50:29;;;;;;;;;;;24.80;35.20;;;;;;5074133;28;19960;-60
2023/12/27 13:52:56;;;;;;;;;;;24.70;35.20;;;;;;5073639;28;19955;-59
2023/12/27 13:55:23;;;;;;;;;;;24.70;35.10;;;;;;5074429;28;19935;-60
2023/12/27 13:57:50;;;;;;;;;;;24.70;35.00;;;;;;5074913;28;19989;-60
2023/12/27 14:00:18;;;;;;;;;;;24.70;35.00;;;;;;5075240;28;20301;-60
2023/12/27 14:02:48;;;;;;;;;;;24.70;34.90;;;;;;5075708;28;19968;-61
2023/12/27 14:05:15;;;;;;;;;;;24.70;35.00;;;;;;5056088;28;20027;-60
2023/12/27 14:07:42;;;;;;;;;;;24.70;34.90;;;;;;5074328;28;19932;-60
2023/12/27 14:10:09;;;;;;;;;;;24.70;34.90;;;;;;5074871;28;20266;-60
2023/12/27 14:12:42;;;;;;;;;;;24.70;34.90;;;;;;5073814;28;20015;-60
2023/12/27 14:15:12;;;;;;;;;;;24.70;34.90;;;;;;5074405;28;20350;-60
2023/12/27 14:17:41;;;;;;;;;;;24.70;35.10;;;;;;5057095;28;19978;-59
2023/12/27 14:20:12;;;;;;;;;;;24.70;35.30;;;;;;5074495;28;19935;-59